createdAt,value
2019-02-18T00:00:44.063Z,1023.14
2019-02-18T00:01:44.085Z,1023.13
2019-02-18T00:02:44.111Z,1023.13
2019-02-18T00:03:44.129Z,1023.10
2019-02-18T00:04:44.156Z,1023.13
2019-02-18T00:05:44.177Z,1023.13
2019-02-18T00:06:44.198Z,1023.09
2019-02-18T00:07:44.222Z,1023.08
2019-02-18T00:08:44.243Z,1023.08
2019-02-18T00:09:44.267Z,1023.06
2019-02-18T00:10:44.295Z,1023.06
2019-02-18T00:11:44.312Z,1023.07
2019-02-18T00:12:44.334Z,1023.10
2019-02-18T00:13:44.358Z,1023.08
2019-02-18T00:14:44.387Z,1023.10
2019-02-18T00:15:44.402Z,1023.12
2019-02-18T00:16:44.428Z,1023.09
2019-02-18T00:17:44.447Z,1023.11
2019-02-18T00:18:44.470Z,1023.10
2019-02-18T00:19:44.494Z,1023.09
2019-02-18T00:20:44.518Z,1023.08
2019-02-18T00:21:44.539Z,1023.11
2019-02-18T00:22:44.562Z,1023.15
2019-02-18T00:23:44.586Z,1023.11
2019-02-18T00:24:44.611Z,1023.08
2019-02-18T00:25:44.628Z,1023.09
2019-02-18T00:26:44.652Z,1023.09
2019-02-18T00:27:44.674Z,1023.07
2019-02-18T00:28:44.700Z,1023.11
2019-02-18T00:29:44.722Z,1023.11
2019-02-18T00:30:44.744Z,1023.07
2019-02-18T00:31:44.765Z,1023.10
2019-02-18T00:32:44.788Z,1023.08
2019-02-18T00:33:44.811Z,1023.07
2019-02-18T00:34:44.831Z,1023.08
2019-02-18T00:35:44.853Z,1023.10
2019-02-18T00:36:44.878Z,1023.10
2019-02-18T00:37:44.898Z,1023.06
2019-02-18T00:38:44.924Z,1023.12
2019-02-18T00:39:44.945Z,1023.13
2019-02-18T00:40:44.967Z,1023.11
2019-02-18T00:41:44.989Z,1023.16
2019-02-18T00:42:45.012Z,1023.18
2019-02-18T00:43:45.037Z,1023.18
2019-02-18T00:44:45.058Z,1023.21
2019-02-18T00:45:45.078Z,1023.19
2019-02-18T00:46:45.102Z,1023.20
2019-02-18T00:47:45.133Z,1023.27
2019-02-18T00:48:45.145Z,1023.28
2019-02-18T00:49:45.166Z,1023.28
2019-02-18T00:50:45.189Z,1023.27
2019-02-18T00:51:45.213Z,1023.25
2019-02-18T00:52:45.236Z,1023.26
2019-02-18T00:53:45.259Z,1023.24
2019-02-18T00:54:45.281Z,1023.24
2019-02-18T00:55:45.304Z,1023.22
2019-02-18T00:56:45.326Z,1023.23
2019-02-18T00:57:45.349Z,1023.21
2019-02-18T00:58:45.369Z,1023.26
2019-02-18T00:59:45.394Z,1023.23
2019-02-18T01:00:45.413Z,1023.26
2019-02-18T01:01:45.434Z,1023.28
2019-02-18T01:02:45.459Z,1023.28
2019-02-18T01:03:45.478Z,1023.23
2019-02-18T01:04:45.501Z,1023.27
2019-02-18T01:05:45.523Z,1023.24
2019-02-18T01:06:45.545Z,1023.27
2019-02-18T01:07:45.572Z,1023.23
2019-02-18T01:08:45.592Z,1023.22
2019-02-18T01:09:45.615Z,1023.23
2019-02-18T01:10:45.640Z,1023.13
2019-02-18T01:11:45.659Z,1023.22
2019-02-18T01:12:45.679Z,1023.20
2019-02-18T01:13:45.704Z,1023.19
2019-02-18T01:14:45.725Z,1023.20
2019-02-18T01:15:45.747Z,1023.23
2019-02-18T01:16:45.775Z,1023.23
2019-02-18T01:17:45.795Z,1023.27
2019-02-18T01:18:45.812Z,1023.25
2019-02-18T01:19:45.837Z,1023.27
2019-02-18T01:20:45.858Z,1023.33
2019-02-18T01:21:45.881Z,1023.31
2019-02-18T01:22:45.902Z,1023.30
2019-02-18T01:23:45.924Z,1023.32
2019-02-18T01:24:45.946Z,1023.31
2019-02-18T01:25:45.970Z,1023.30
2019-02-18T01:26:45.993Z,1023.26
2019-02-18T01:27:46.016Z,1023.26
2019-02-18T01:28:46.036Z,1023.23
2019-02-18T01:29:46.057Z,1023.19
2019-02-18T01:30:46.078Z,1023.24
2019-02-18T01:31:46.101Z,1023.22
2019-02-18T01:32:46.123Z,1023.25
2019-02-18T01:33:46.148Z,1023.24
2019-02-18T01:34:46.169Z,1023.23
2019-02-18T01:35:46.189Z,1023.19
2019-02-18T01:36:46.214Z,1023.20
2019-02-18T01:37:46.388Z,1023.16
2019-02-18T01:38:46.260Z,1023.13
2019-02-18T01:39:46.278Z,1023.15
2019-02-18T01:40:46.301Z,1023.16
2019-02-18T01:41:46.322Z,1023.16
2019-02-18T01:42:46.346Z,1023.18
2019-02-18T01:43:46.367Z,1023.21
2019-02-18T01:44:46.392Z,1023.18
2019-02-18T01:45:46.412Z,1023.17
2019-02-18T01:46:46.442Z,1023.21
2019-02-18T01:47:46.454Z,1023.18
2019-02-18T01:48:46.478Z,1023.19
2019-02-18T01:49:46.500Z,1023.18
2019-02-18T01:50:46.523Z,1023.17
2019-02-18T01:51:46.544Z,1023.21
2019-02-18T01:52:46.568Z,1023.23
2019-02-18T01:53:46.589Z,1023.20
2019-02-18T01:54:46.610Z,1023.19
2019-02-18T01:55:46.638Z,1023.26
2019-02-18T01:56:46.653Z,1023.25
2019-02-18T01:57:46.678Z,1023.26
2019-02-18T01:58:46.702Z,1023.26
2019-02-18T01:59:46.728Z,1023.23
2019-02-18T02:00:46.744Z,1023.30
2019-02-18T02:01:46.767Z,1023.32
2019-02-18T02:02:46.786Z,1023.23
2019-02-18T02:03:46.809Z,1023.28
2019-02-18T02:04:46.831Z,1023.24
2019-02-18T02:05:46.852Z,1023.25
2019-02-18T02:06:46.878Z,1023.21
2019-02-18T02:07:55.944Z,1023.19
2019-02-18T02:08:46.919Z,1023.22
2019-02-18T02:09:46.942Z,1023.25
2019-02-18T02:10:47.012Z,1023.21
2019-02-18T02:11:46.983Z,1023.23
2019-02-18T02:12:47.006Z,1023.21
2019-02-18T02:13:47.029Z,1023.23
2019-02-18T02:14:47.048Z,1023.20
2019-02-18T02:15:47.071Z,1023.16
2019-02-18T02:16:47.094Z,1023.15
2019-02-18T02:17:47.116Z,1023.17
2019-02-18T02:18:47.141Z,1023.20
2019-02-18T02:19:47.158Z,1023.21
2019-02-18T02:20:47.252Z,1023.26
2019-02-18T02:21:47.205Z,1023.25
2019-02-18T02:22:47.229Z,1023.26
2019-02-18T02:23:47.247Z,1023.29
2019-02-18T02:24:47.266Z,1023.27
2019-02-18T02:25:47.294Z,1023.22
2019-02-18T02:26:47.311Z,1023.21
2019-02-18T02:27:47.330Z,1023.22
2019-02-18T02:28:47.353Z,1023.20
2019-02-18T02:29:47.375Z,1023.20
2019-02-18T02:30:47.397Z,1023.19
2019-02-18T02:31:47.417Z,1023.18
2019-02-18T02:32:47.441Z,1023.20
2019-02-18T02:33:47.462Z,1023.19
2019-02-18T02:34:47.490Z,1023.25
2019-02-18T02:35:47.503Z,1023.24
2019-02-18T02:36:47.528Z,1023.28
2019-02-18T02:37:47.550Z,1023.27
2019-02-18T02:38:47.570Z,1023.24
2019-02-18T02:39:47.588Z,1023.28
2019-02-18T02:40:47.611Z,1023.26
2019-02-18T02:41:47.633Z,1023.27
2019-02-18T02:42:47.654Z,1023.24
2019-02-18T02:43:47.682Z,1023.22
2019-02-18T02:44:47.695Z,1023.21
2019-02-18T02:45:47.719Z,1023.25
2019-02-18T02:46:47.740Z,1023.27
2019-02-18T02:47:47.759Z,1023.30
2019-02-18T02:48:47.781Z,1023.25
2019-02-18T02:49:47.802Z,1023.24
2019-02-18T02:50:47.826Z,1023.23
2019-02-18T02:51:47.844Z,1023.20
2019-02-18T02:52:47.876Z,1023.23
2019-02-18T02:53:47.914Z,1023.28
2019-02-18T02:54:47.910Z,1023.24
2019-02-18T02:55:47.932Z,1023.26
2019-02-18T02:56:47.952Z,1023.19
2019-02-18T02:57:47.973Z,1023.20
2019-02-18T02:58:47.996Z,1023.16
2019-02-18T02:59:48.017Z,1023.17
2019-02-18T03:00:48.037Z,1023.17
2019-02-18T03:01:48.057Z,1023.15
2019-02-18T03:02:48.078Z,1023.17
2019-02-18T03:03:48.103Z,1023.18
2019-02-18T03:04:48.121Z,1023.24
2019-02-18T03:05:48.143Z,1023.29
2019-02-18T03:06:48.165Z,1023.28
2019-02-18T03:07:48.183Z,1023.27
2019-02-18T03:08:48.212Z,1023.27
2019-02-18T03:09:48.229Z,1023.27
2019-02-18T03:10:48.278Z,1023.27
2019-02-18T03:11:48.273Z,1023.27
2019-02-18T03:12:48.290Z,1023.26
2019-02-18T03:13:48.314Z,1023.29
2019-02-18T03:14:48.335Z,1023.30
2019-02-18T03:15:48.356Z,1023.29
2019-02-18T03:16:48.379Z,1023.27
2019-02-18T03:17:48.403Z,1023.30
2019-02-18T03:18:48.416Z,1023.26
2019-02-18T03:19:48.439Z,1023.26
2019-02-18T03:20:48.460Z,1023.23
2019-02-18T03:21:48.480Z,1023.20
2019-02-18T03:22:48.501Z,1023.21
2019-02-18T03:23:48.521Z,1023.18
2019-02-18T03:24:48.543Z,1023.18
2019-02-18T03:25:48.564Z,1023.15
2019-02-18T03:26:48.587Z,1023.18
2019-02-18T03:27:48.604Z,1023.17
2019-02-18T03:28:48.627Z,1023.18
2019-02-18T03:29:48.647Z,1023.16
2019-02-18T03:30:48.670Z,1023.13
2019-02-18T03:31:48.689Z,1023.11
2019-02-18T03:32:48.737Z,1023.11
2019-02-18T03:33:48.738Z,1023.11
2019-02-18T03:34:48.755Z,1023.15
2019-02-18T03:35:48.773Z,1023.10
2019-02-18T03:36:48.796Z,1023.14
2019-02-18T03:37:48.815Z,1023.15
2019-02-18T03:38:48.835Z,1023.10
2019-02-18T03:39:48.859Z,1023.15
2019-02-18T03:40:48.877Z,1023.12
2019-02-18T03:41:48.899Z,1023.15
2019-02-18T03:42:48.920Z,1023.16
2019-02-18T03:43:48.940Z,1023.17
2019-02-18T03:44:48.962Z,1023.21
2019-02-18T03:45:48.982Z,1023.21
2019-02-18T03:46:50.723Z,1023.17
2019-02-18T03:47:49.023Z,1023.18
2019-02-18T03:48:49.050Z,1023.21
2019-02-18T03:49:49.073Z,1023.20
2019-02-18T03:50:49.091Z,1023.21
2019-02-18T03:51:49.111Z,1023.17
2019-02-18T03:52:49.131Z,1023.21
2019-02-18T03:53:49.153Z,1023.21
2019-02-18T03:54:49.171Z,1023.17
2019-02-18T03:55:49.195Z,1023.19
2019-02-18T03:56:49.213Z,1023.18
2019-02-18T03:57:49.234Z,1023.14
2019-02-18T03:58:49.254Z,1023.15
2019-02-18T03:59:49.277Z,1023.11
2019-02-18T04:00:49.299Z,1023.12
2019-02-18T04:01:49.317Z,1023.15
2019-02-18T04:02:49.337Z,1023.09
2019-02-18T04:03:49.358Z,1023.15
2019-02-18T04:04:49.380Z,1023.14
2019-02-18T04:05:49.399Z,1023.08
2019-02-18T04:06:49.421Z,1023.09
2019-02-18T04:07:49.442Z,1023.06
2019-02-18T04:08:49.466Z,1023.06
2019-02-18T04:09:49.487Z,1023.06
2019-02-18T04:10:49.506Z,1023.04
2019-02-18T04:11:49.525Z,1023.03
2019-02-18T04:12:49.547Z,1023.00
2019-02-18T04:13:49.569Z,1023.01
2019-02-18T04:14:49.601Z,1023.03
2019-02-18T04:15:49.607Z,1023.02
2019-02-18T04:16:49.627Z,1023.05
2019-02-18T04:17:49.650Z,1023.04
2019-02-18T04:18:49.680Z,1023.03
2019-02-18T04:19:49.693Z,1023.05
2019-02-18T04:20:49.719Z,1023.05
2019-02-18T04:21:49.732Z,1023.03
2019-02-18T04:22:49.757Z,1023.02
2019-02-18T04:23:49.776Z,1022.98
2019-02-18T04:24:49.797Z,1023.01
2019-02-18T04:25:49.816Z,1023.01
2019-02-18T04:26:49.836Z,1022.99
2019-02-18T04:27:49.859Z,1023.03
2019-02-18T04:28:49.877Z,1023.05
2019-02-18T04:29:49.899Z,1023.02
2019-02-18T04:30:49.919Z,1023.02
2019-02-18T04:31:49.943Z,1022.98
2019-02-18T04:32:49.962Z,1022.99
2019-02-18T04:33:49.981Z,1023.01
2019-02-18T04:34:50.003Z,1023.00
2019-02-18T04:35:50.026Z,1023.00
2019-02-18T04:36:50.047Z,1022.97
2019-02-18T04:37:50.064Z,1023.04
2019-02-18T04:38:53.979Z,1023.01
2019-02-18T04:39:50.104Z,1023.02
2019-02-18T04:40:50.134Z,1023.00
2019-02-18T04:41:50.158Z,1022.96
2019-02-18T04:42:50.175Z,1023.00
2019-02-18T04:43:50.198Z,1023.01
2019-02-18T04:44:50.211Z,1023.01
2019-02-18T04:45:50.236Z,1023.01
2019-02-18T04:46:50.252Z,1023.04
2019-02-18T04:47:50.272Z,1023.04
2019-02-18T04:48:50.292Z,1023.07
2019-02-18T04:49:50.319Z,1023.06
2019-02-18T04:50:50.334Z,1023.02
2019-02-18T04:51:50.354Z,1023.03
2019-02-18T04:52:50.379Z,1023.00
2019-02-18T04:53:50.397Z,1023.00
2019-02-18T04:54:50.419Z,1023.00
2019-02-18T04:55:50.438Z,1023.00
2019-02-18T04:56:50.459Z,1023.01
2019-02-18T04:57:50.480Z,1023.04
2019-02-18T04:58:50.500Z,1023.06
2019-02-18T04:59:50.521Z,1023.10
2019-02-18T05:00:50.545Z,1023.10
2019-02-18T05:01:50.572Z,1023.09
2019-02-18T05:02:50.584Z,1023.07
2019-02-18T05:03:50.607Z,1023.11
2019-02-18T05:04:50.625Z,1023.10
2019-02-18T05:05:50.646Z,1023.07
2019-02-18T05:06:50.675Z,1023.13
2019-02-18T05:07:50.688Z,1023.13
2019-02-18T05:08:50.709Z,1023.12
2019-02-18T05:09:50.729Z,1023.15
2019-02-18T05:10:50.749Z,1023.17
2019-02-18T05:11:50.771Z,1023.19
2019-02-18T05:12:50.795Z,1023.23
2019-02-18T05:13:50.818Z,1023.23
2019-02-18T05:14:50.834Z,1023.25
2019-02-18T05:15:50.862Z,1023.25
2019-02-18T05:16:50.874Z,1023.25
2019-02-18T05:17:50.896Z,1023.25
2019-02-18T05:18:50.916Z,1023.28
2019-02-18T05:19:50.944Z,1023.31
2019-02-18T05:20:50.962Z,1023.31
2019-02-18T05:21:50.983Z,1023.30
2019-02-18T05:22:51.001Z,1023.30
2019-02-18T05:23:51.022Z,1023.28
2019-02-18T05:24:51.042Z,1023.31
2019-02-18T05:25:51.065Z,1023.33
2019-02-18T05:26:51.090Z,1023.33
2019-02-18T05:27:51.108Z,1023.35
2019-02-18T05:28:51.126Z,1023.38
2019-02-18T05:29:51.148Z,1023.43
2019-02-18T05:30:51.170Z,1023.41
2019-02-18T05:31:51.191Z,1023.41
2019-02-18T05:32:51.214Z,1023.40
2019-02-18T05:33:51.238Z,1023.43
2019-02-18T05:34:51.256Z,1023.43
2019-02-18T05:35:51.277Z,1023.41
2019-02-18T05:36:51.309Z,1023.41
2019-02-18T05:37:51.320Z,1023.44
2019-02-18T05:38:51.339Z,1023.44
2019-02-18T05:39:51.360Z,1023.45
2019-02-18T05:40:51.383Z,1023.47
2019-02-18T05:41:51.403Z,1023.45
2019-02-18T05:42:51.425Z,1023.46
2019-02-18T05:43:51.447Z,1023.49
2019-02-18T05:44:51.471Z,1023.46
2019-02-18T05:45:51.490Z,1023.49
2019-02-18T05:46:51.510Z,1023.51
2019-02-18T05:47:51.529Z,1023.51
2019-02-18T05:48:51.553Z,1023.51
2019-02-18T05:49:51.573Z,1023.49
2019-02-18T05:50:51.601Z,1023.48
2019-02-18T05:51:51.617Z,1023.45
2019-02-18T05:52:51.636Z,1023.47
2019-02-18T05:53:51.661Z,1023.43
2019-02-18T05:54:51.682Z,1023.44
2019-02-18T05:55:51.702Z,1023.48
2019-02-18T05:56:51.729Z,1023.52
2019-02-18T05:57:51.747Z,1023.55
2019-02-18T05:58:51.768Z,1023.56
2019-02-18T05:59:51.791Z,1023.63
2019-02-18T06:00:51.816Z,1023.61
2019-02-18T06:01:51.834Z,1023.63
2019-02-18T06:02:51.855Z,1023.64
2019-02-18T06:03:51.878Z,1023.67
2019-02-18T06:04:51.898Z,1023.68
2019-02-18T06:05:51.921Z,1023.66
2019-02-18T06:06:51.943Z,1023.72
2019-02-18T06:07:51.963Z,1023.69
2019-02-18T06:08:51.984Z,1023.68
2019-02-18T06:09:52.011Z,1023.62
2019-02-18T06:10:52.032Z,1023.63
2019-02-18T06:11:52.051Z,1023.64
2019-02-18T06:12:52.098Z,1023.66
2019-02-18T06:13:52.096Z,1023.61
2019-02-18T06:14:52.117Z,1023.58
2019-02-18T06:15:52.142Z,1023.62
2019-02-18T06:16:52.164Z,1023.60
2019-02-18T06:17:52.184Z,1023.59
2019-02-18T06:18:52.204Z,1023.65
2019-02-18T06:19:52.229Z,1023.62
2019-02-18T06:20:52.250Z,1023.66
2019-02-18T06:21:52.272Z,1023.66
2019-02-18T06:22:52.303Z,1023.68
2019-02-18T06:23:52.317Z,1023.66
2019-02-18T06:24:52.338Z,1023.63
2019-02-18T06:25:52.364Z,1023.56
2019-02-18T06:26:52.389Z,1023.58
2019-02-18T06:27:52.412Z,1023.55
2019-02-18T06:28:52.431Z,1023.54
2019-02-18T06:29:52.454Z,1023.52
2019-02-18T06:30:54.900Z,1023.52
2019-02-18T06:31:52.501Z,1023.43
2019-02-18T06:32:52.526Z,1023.43
2019-02-18T06:33:52.558Z,1023.44
2019-02-18T06:34:52.572Z,1023.39
2019-02-18T06:35:52.604Z,1023.36
2019-02-18T06:36:52.617Z,1023.34
2019-02-18T06:37:52.641Z,1023.32
2019-02-18T06:38:52.667Z,1023.34
2019-02-18T06:39:52.692Z,1023.33
2019-02-18T06:40:52.720Z,1023.39
2019-02-18T06:41:52.737Z,1023.43
2019-02-18T06:42:52.767Z,1023.43
2019-02-18T06:43:52.788Z,1023.46
2019-02-18T06:44:52.811Z,1023.43
2019-02-18T06:45:52.837Z,1023.43
2019-02-18T06:46:52.860Z,1023.36
2019-02-18T06:47:52.882Z,1023.45
2019-02-18T06:48:52.909Z,1023.44
2019-02-18T06:49:52.932Z,1023.40
2019-02-18T06:50:52.957Z,1023.40
2019-02-18T06:51:52.979Z,1023.42
2019-02-18T06:52:53.004Z,1023.46
2019-02-18T06:53:53.033Z,1023.43
2019-02-18T06:54:53.058Z,1023.44
2019-02-18T06:55:53.081Z,1023.48
2019-02-18T06:56:53.110Z,1023.52
2019-02-18T06:57:53.130Z,1023.51
2019-02-18T06:58:53.175Z,1023.51
2019-02-18T06:59:53.179Z,1023.54
2019-02-18T07:00:53.203Z,1023.54
2019-02-18T07:01:53.229Z,1023.58
2019-02-18T07:02:53.254Z,1023.58
2019-02-18T07:03:53.279Z,1023.55
2019-02-18T07:04:53.305Z,1023.56
2019-02-18T07:05:53.338Z,1023.58
2019-02-18T07:06:53.357Z,1023.63
2019-02-18T07:07:53.381Z,1023.63
2019-02-18T07:08:53.412Z,1023.65
2019-02-18T07:09:53.435Z,1023.61
2019-02-18T07:10:53.460Z,1023.63
2019-02-18T07:11:53.483Z,1023.64
2019-02-18T07:12:53.510Z,1023.61
2019-02-18T07:13:53.537Z,1023.63
2019-02-18T07:14:53.563Z,1023.66
2019-02-18T07:15:53.595Z,1023.66
2019-02-18T07:16:53.613Z,1023.65
2019-02-18T07:17:53.693Z,1023.65
2019-02-18T07:18:53.667Z,1023.64
2019-02-18T07:19:53.694Z,1023.68
2019-02-18T07:20:53.719Z,1023.68
2019-02-18T07:21:53.748Z,1023.64
2019-02-18T07:22:53.774Z,1023.61
2019-02-18T07:23:53.798Z,1023.64
2019-02-18T07:24:53.829Z,1023.62
2019-02-18T07:25:53.851Z,1023.71
2019-02-18T07:26:53.879Z,1023.70
2019-02-18T07:27:53.910Z,1023.77
2019-02-18T07:28:53.932Z,1023.66
2019-02-18T07:29:53.961Z,1023.66
2019-02-18T07:30:53.986Z,1023.63
2019-02-18T07:31:54.012Z,1023.61
2019-02-18T07:32:54.043Z,1023.55
2019-02-18T07:33:54.067Z,1023.47
2019-02-18T07:34:54.103Z,1023.51
2019-02-18T07:35:54.125Z,1023.50
2019-02-18T07:36:54.150Z,1023.48
2019-02-18T07:37:54.179Z,1023.48
2019-02-18T07:38:54.207Z,1023.53
2019-02-18T07:40:00.998Z,1023.54
2019-02-18T07:40:54.266Z,1023.56
2019-02-18T07:41:54.292Z,1023.49
2019-02-18T07:42:54.320Z,1023.47
2019-02-18T07:43:54.353Z,1023.52
2019-02-18T07:44:54.524Z,1023.49
2019-02-18T07:45:54.406Z,1023.43
2019-02-18T07:46:54.438Z,1023.37
2019-02-18T07:47:54.464Z,1023.42
2019-02-18T07:48:54.494Z,1023.42
2019-02-18T07:49:54.523Z,1023.43
2019-02-18T07:50:54.555Z,1023.42
2019-02-18T07:51:54.595Z,1023.42
2019-02-18T07:52:54.612Z,1023.42
2019-02-18T07:53:54.647Z,1023.35
2019-02-18T07:54:54.670Z,1023.35
2019-02-18T07:55:54.698Z,1023.36
2019-02-18T07:56:54.728Z,1023.31
2019-02-18T07:57:54.788Z,1023.31
2019-02-18T07:58:54.788Z,1023.35
2019-02-18T07:59:54.822Z,1023.37
2019-02-18T08:00:54.850Z,1023.36
2019-02-18T08:01:54.882Z,1023.37
2019-02-18T08:02:54.909Z,1023.38
2019-02-18T08:03:54.943Z,1023.37
2019-02-18T08:04:54.968Z,1023.43
2019-02-18T08:05:54.999Z,1023.46
2019-02-18T08:06:55.030Z,1023.48
2019-02-18T08:07:55.066Z,1023.48
2019-02-18T08:08:55.091Z,1023.48
2019-02-18T08:09:55.127Z,1023.46
2019-02-18T08:10:55.152Z,1023.49
2019-02-18T08:11:55.183Z,1023.46
2019-02-18T08:12:55.216Z,1023.42
2019-02-18T08:13:55.246Z,1023.41
2019-02-18T08:14:55.277Z,1023.44
2019-02-18T08:15:55.309Z,1023.41
2019-02-18T08:16:55.338Z,1023.41
2019-02-18T08:17:55.375Z,1023.38
2019-02-18T08:18:55.403Z,1023.39
2019-02-18T08:19:55.441Z,1023.34
2019-02-18T08:20:55.465Z,1023.32
2019-02-18T08:21:55.502Z,1023.30
2019-02-18T08:22:55.531Z,1023.34
2019-02-18T08:23:59.955Z,1023.37
2019-02-18T08:24:55.594Z,1023.32
2019-02-18T08:25:55.628Z,1023.35
2019-02-18T08:26:55.658Z,1023.34
2019-02-18T08:27:55.691Z,1023.32
2019-02-18T08:28:55.724Z,1023.36
2019-02-18T08:29:55.754Z,1023.40
2019-02-18T08:30:55.789Z,1023.34
2019-02-18T08:31:55.822Z,1023.32
2019-02-18T08:32:55.855Z,1023.28
2019-02-18T08:33:55.892Z,1023.27
2019-02-18T08:34:55.920Z,1023.26
2019-02-18T08:35:55.955Z,1023.25
2019-02-18T08:36:55.986Z,1023.22
2019-02-18T08:37:56.024Z,1023.26
2019-02-18T08:38:56.051Z,1023.29
2019-02-18T08:39:56.085Z,1023.27
2019-02-18T08:40:56.118Z,1023.28
2019-02-18T08:41:56.153Z,1023.31
2019-02-18T08:42:56.185Z,1023.29
2019-02-18T08:43:56.220Z,1023.27
2019-02-18T08:44:56.251Z,1023.30
2019-02-18T08:45:56.288Z,1023.25
2019-02-18T08:46:56.318Z,1023.26
2019-02-18T08:47:56.356Z,1023.23
2019-02-18T08:48:56.385Z,1023.22
2019-02-18T08:49:56.419Z,1023.20
2019-02-18T08:50:56.452Z,1023.22
2019-02-18T08:51:56.485Z,1023.21
2019-02-18T08:52:56.523Z,1023.22
2019-02-18T08:53:56.554Z,1023.23
2019-02-18T08:54:57.023Z,1023.24
2019-02-18T08:55:56.623Z,1023.25
2019-02-18T08:56:56.655Z,1023.24
2019-02-18T08:57:56.689Z,1023.22
2019-02-18T08:58:56.725Z,1023.23
2019-02-18T08:59:56.760Z,1023.25
2019-02-18T09:01:02.531Z,1023.27
2019-02-18T09:01:56.826Z,1023.24
2019-02-18T09:02:56.862Z,1023.27
2019-02-18T09:03:56.895Z,1023.27
2019-02-18T09:04:56.929Z,1023.26
2019-02-18T09:05:56.966Z,1023.24
2019-02-18T09:06:57.001Z,1023.18
2019-02-18T09:07:57.038Z,1023.20
2019-02-18T09:08:57.070Z,1023.19
2019-02-18T09:09:57.105Z,1023.17
2019-02-18T09:10:57.140Z,1023.14
2019-02-18T09:11:57.237Z,1023.14
2019-02-18T09:12:57.207Z,1023.12
2019-02-18T09:13:57.244Z,1023.14
2019-02-18T09:14:57.277Z,1023.12
2019-02-18T09:16:00.145Z,1023.18
2019-02-18T09:16:57.344Z,1023.14
2019-02-18T09:17:57.379Z,1023.17
2019-02-18T09:18:57.415Z,1023.14
2019-02-18T09:19:57.448Z,1023.12
2019-02-18T09:20:57.483Z,1023.14
2019-02-18T09:21:57.518Z,1023.13
2019-02-18T09:22:57.552Z,1023.16
2019-02-18T09:23:57.603Z,1023.14
2019-02-18T09:24:57.620Z,1023.18
2019-02-18T09:25:57.659Z,1023.16
2019-02-18T09:26:57.690Z,1023.21
2019-02-18T09:27:57.732Z,1023.16
2019-02-18T09:28:57.763Z,1023.14
2019-02-18T09:29:57.793Z,1023.05
2019-02-18T09:30:57.832Z,1023.07
2019-02-18T09:31:57.867Z,1023.10
2019-02-18T09:32:57.905Z,1023.08
2019-02-18T09:33:57.934Z,1023.09
2019-02-18T09:35:02.022Z,1023.07
2019-02-18T09:35:58.007Z,1023.04
2019-02-18T09:36:58.041Z,1023.04
2019-02-18T09:37:58.078Z,1023.00
2019-02-18T09:38:58.114Z,1023.03
2019-02-18T09:39:58.147Z,1023.00
2019-02-18T09:40:58.180Z,1022.96
2019-02-18T09:41:58.218Z,1022.95
2019-02-18T09:42:58.258Z,1022.92
2019-02-18T09:43:58.295Z,1022.86
2019-02-18T09:44:58.325Z,1022.84
2019-02-18T09:45:58.357Z,1022.82
2019-02-18T09:46:58.394Z,1022.89
2019-02-18T09:47:58.434Z,1022.90
2019-02-18T09:48:58.465Z,1022.86
2019-02-18T09:49:58.501Z,1022.84
2019-02-18T09:51:00.164Z,1022.85
2019-02-18T09:51:58.573Z,1022.83
2019-02-18T09:52:58.607Z,1022.83
2019-02-18T09:53:58.645Z,1022.83
2019-02-18T09:54:58.682Z,1022.80
2019-02-18T09:55:58.719Z,1022.80
2019-02-18T09:56:58.752Z,1022.74
2019-02-18T09:57:58.786Z,1022.79
2019-02-18T09:58:58.824Z,1022.79
2019-02-18T09:59:58.862Z,1022.73
2019-02-18T10:00:58.892Z,1022.73
2019-02-18T10:01:58.929Z,1022.69
2019-02-18T10:02:58.966Z,1022.72
2019-02-18T10:03:59.000Z,1022.70
2019-02-18T10:04:59.038Z,1022.72
2019-02-18T10:05:59.076Z,1022.74
2019-02-18T10:06:59.112Z,1022.72
2019-02-18T10:07:59.145Z,1022.70
2019-02-18T10:08:59.181Z,1022.66
2019-02-18T10:09:59.218Z,1022.69
2019-02-18T10:10:59.256Z,1022.68
2019-02-18T10:11:59.290Z,1022.66
2019-02-18T10:12:59.757Z,1022.63
2019-02-18T10:13:59.367Z,1022.67
2019-02-18T10:14:59.398Z,1022.67
2019-02-18T10:15:59.435Z,1022.69
2019-02-18T10:16:59.472Z,1022.70
2019-02-18T10:17:59.507Z,1022.71
2019-02-18T10:18:59.545Z,1022.71
2019-02-18T10:19:59.581Z,1022.72
2019-02-18T10:20:59.618Z,1022.71
2019-02-18T10:21:59.657Z,1022.69
2019-02-18T10:22:59.689Z,1022.68
2019-02-18T10:23:59.729Z,1022.64
2019-02-18T10:24:59.762Z,1022.58
2019-02-18T10:25:59.797Z,1022.55
2019-02-18T10:26:59.838Z,1022.50
2019-02-18T10:27:59.870Z,1022.53
2019-02-18T10:28:59.908Z,1022.49
2019-02-18T10:29:59.944Z,1022.51
2019-02-18T10:30:59.982Z,1022.49
2019-02-18T10:32:00.019Z,1022.32
2019-02-18T10:33:00.053Z,1022.40
2019-02-18T10:34:00.087Z,1022.33
2019-02-18T10:35:00.354Z,1022.28
2019-02-18T10:36:00.165Z,1022.20
2019-02-18T10:37:00.196Z,1022.30
2019-02-18T10:38:00.248Z,1022.32
2019-02-18T10:39:00.270Z,1022.26
2019-02-18T10:40:00.379Z,1022.32
2019-02-18T10:41:06.941Z,1022.28
2019-02-18T10:42:00.374Z,1022.20
2019-02-18T10:43:00.408Z,1022.22
2019-02-18T10:44:00.447Z,1022.29
2019-02-18T10:45:00.482Z,1022.28
2019-02-18T10:46:00.515Z,1022.23
2019-02-18T10:47:00.552Z,1022.30
2019-02-18T10:48:00.585Z,1022.10
2019-02-18T10:49:00.626Z,1022.08
2019-02-18T10:50:00.659Z,1022.08
2019-02-18T10:51:00.696Z,1022.07
2019-02-18T10:52:00.729Z,1022.11
2019-02-18T10:53:00.764Z,1022.15
2019-02-18T10:54:00.801Z,1022.04
2019-02-18T10:55:00.835Z,1021.95
2019-02-18T10:56:00.874Z,1022.08
2019-02-18T10:57:00.905Z,1021.90
2019-02-18T10:58:00.940Z,1021.86
2019-02-18T10:59:00.974Z,1021.83
2019-02-18T11:00:01.012Z,1021.78
2019-02-18T11:01:01.048Z,1021.79
2019-02-18T11:02:01.079Z,1021.81
2019-02-18T11:03:01.114Z,1021.74
2019-02-18T11:04:01.149Z,1021.76
2019-02-18T11:05:01.195Z,1021.75
2019-02-18T11:06:01.215Z,1021.72
2019-02-18T11:07:01.254Z,1021.68
2019-02-18T11:08:01.283Z,1021.69
2019-02-18T11:09:01.317Z,1021.62
2019-02-18T11:10:01.351Z,1021.65
2019-02-18T11:11:01.384Z,1021.62
2019-02-18T11:12:01.419Z,1021.56
2019-02-18T11:13:01.454Z,1021.56
2019-02-18T11:14:01.485Z,1021.51
2019-02-18T11:15:01.523Z,1021.42
2019-02-18T11:16:01.548Z,1021.40
2019-02-18T11:17:01.585Z,1021.42
2019-02-18T11:18:01.614Z,1021.42
2019-02-18T11:19:01.649Z,1021.42
2019-02-18T11:20:01.680Z,1021.47
2019-02-18T11:21:01.713Z,1021.43
2019-02-18T11:22:01.743Z,1021.39
2019-02-18T11:23:01.777Z,1021.41
2019-02-18T11:24:01.811Z,1021.42
2019-02-18T11:25:01.849Z,1021.57
2019-02-18T11:26:01.871Z,1021.39
2019-02-18T11:27:01.904Z,1021.52
2019-02-18T11:28:01.939Z,1021.43
2019-02-18T11:29:01.970Z,1021.49
2019-02-18T11:30:01.999Z,1021.38
2019-02-18T11:31:02.035Z,1021.41
2019-02-18T11:32:02.063Z,1021.51
2019-02-18T11:33:02.095Z,1021.46
2019-02-18T11:34:02.128Z,1021.41
2019-02-18T11:35:02.165Z,1021.35
2019-02-18T11:36:02.191Z,1021.30
2019-02-18T11:37:02.228Z,1021.30
2019-02-18T11:38:02.259Z,1021.27
2019-02-18T11:39:02.292Z,1021.29
2019-02-18T11:40:02.323Z,1021.39
2019-02-18T11:41:02.355Z,1021.27
2019-02-18T11:42:02.386Z,1021.27
2019-02-18T11:43:02.418Z,1021.27
2019-02-18T11:44:02.450Z,1021.23
2019-02-18T11:45:02.484Z,1021.19
2019-02-18T11:46:02.515Z,1021.13
2019-02-18T11:47:02.546Z,1021.13
2019-02-18T11:48:02.578Z,1021.15
2019-02-18T11:49:02.611Z,1021.23
2019-02-18T11:50:02.642Z,1021.21
2019-02-18T11:51:02.675Z,1021.16
2019-02-18T11:52:02.704Z,1021.18
2019-02-18T11:53:02.738Z,1021.15
2019-02-18T11:54:02.769Z,1021.15
2019-02-18T11:55:02.803Z,1021.18
2019-02-18T11:56:02.830Z,1021.13
2019-02-18T11:57:02.861Z,1021.15
2019-02-18T11:58:02.893Z,1021.10
2019-02-18T11:59:02.926Z,1021.08
2019-02-18T12:00:02.955Z,1021.05
2019-02-18T12:01:02.989Z,1021.04
2019-02-18T12:02:03.021Z,1021.00
2019-02-18T12:03:09.335Z,1021.05
2019-02-18T12:04:03.081Z,1021.01
2019-02-18T12:05:03.112Z,1021.04
2019-02-18T12:06:03.142Z,1021.01